Time;durP1;ratioP1;P1;durP2;ratioP2;P2;SDS_P1;SDS_P2;PMS_P1;PMS_P2;Temp;Humidity;BMP_temperature;BMP_pressure;BME280_temperature;BME280_humidity;BME280_pressure;Samples;Min_cycle;Max_cycle;Signal;HPM_P1;HPM_P2
2021/09/13 00:01:49;;;;;;;2.15;1.65;;;16.80;99.90;;;;;;5024163;28;20050;-74
2021/09/13 00:04:16;;;;;;;2.55;1.60;;;16.80;99.90;;;;;;5018988;28;20057;-74
2021/09/13 00:06:45;;;;;;;1.92;1.55;;;16.80;99.90;;;;;;5019627;28;20037;-74
2021/09/13 00:09:12;;;;;;;3.92;1.65;;;16.80;99.90;;;;;;5022051;28;20057;-74
2021/09/13 00:11:39;;;;;;;1.70;1.52;;;16.80;99.90;;;;;;5029373;28;20057;-74
2021/09/13 00:14:08;;;;;;;2.15;1.83;;;16.80;99.90;;;;;;5026001;28;20041;-74
2021/09/13 00:16:36;;;;;;;2.17;1.70;;;16.80;99.90;;;;;;5048244;28;20046;-74
2021/09/13 00:19:03;;;;;;;4.95;1.65;;;16.70;99.90;;;;;;5015542;28;20049;-74
2021/09/13 00:21:30;;;;;;;4.43;1.73;;;16.70;99.90;;;;;;5022413;28;20037;-74
2021/09/13 00:23:57;;;;;;;2.15;1.58;;;16.70;99.90;;;;;;5042543;28;20045;-75
2021/09/13 00:26:24;;;;;;;2.55;1.50;;;16.70;99.90;;;;;;5034772;28;20465;-74
2021/09/13 00:28:51;;;;;;;2.03;1.73;;;16.70;99.90;;;;;;5035449;28;20045;-74
2021/09/13 00:31:18;;;;;;;2.13;1.60;;;16.60;99.90;;;;;;5034457;28;20045;-74
2021/09/13 00:33:45;;;;;;;1.98;1.60;;;16.60;99.90;;;;;;5034866;28;20128;-75
2021/09/13 00:36:12;;;;;;;3.20;1.83;;;16.60;99.90;;;;;;5034106;28;20556;-74
2021/09/13 00:38:39;;;;;;;3.70;1.65;;;16.60;99.90;;;;;;5035185;28;20076;-74
2021/09/13 00:41:06;;;;;;;3.47;1.65;;;16.50;99.90;;;;;;5035689;28;20480;-74
2021/09/13 00:43:33;;;;;;;2.38;1.60;;;16.50;99.90;;;;;;5051892;28;20048;-74
2021/09/13 00:46:00;;;;;;;2.42;1.75;;;16.40;99.90;;;;;;5034733;28;20049;-74
2021/09/13 00:48:27;;;;;;;2.63;2.10;;;16.40;99.90;;;;;;5033512;28;20053;-74
2021/09/13 00:50:54;;;;;;;4.40;2.00;;;16.40;99.90;;;;;;5034762;28;20075;-75
2021/09/13 00:53:22;;;;;;;1.80;1.70;;;16.40;99.90;;;;;;5034381;28;20056;-74
2021/09/13 00:55:55;;;;;;;2.45;1.88;;;16.30;99.90;;;;;;5035621;28;20060;-75
2021/09/13 00:58:25;;;;;;;2.75;1.75;;;16.30;99.90;;;;;;5033990;28;20049;-75
2021/09/13 01:00:52;;;;;;;2.85;1.70;;;16.20;99.90;;;;;;5050710;28;20370;-75
2021/09/13 01:03:20;;;;;;;3.30;2.03;;;16.20;99.90;;;;;;5033597;28;20080;-75
2021/09/13 01:05:48;;;;;;;2.03;1.80;;;16.20;99.90;;;;;;5032888;28;20092;-75
2021/09/13 01:08:15;;;;;;;4.20;1.98;;;16.10;99.90;;;;;;5034444;28;20049;-75
2021/09/13 01:10:42;;;;;;;2.45;1.70;;;16.10;99.90;;;;;;5035644;28;20064;-75
2021/09/13 01:13:09;;;;;;;2.60;1.85;;;16.00;99.90;;;;;;5033651;28;20041;-75
2021/09/13 01:15:39;;;;;;;2.15;1.95;;;16.00;99.90;;;;;;5034110;28;20037;-75
2021/09/13 01:18:07;;;;;;;4.80;2.20;;;15.90;99.90;;;;;;5033497;28;20132;-75
2021/09/13 01:20:35;;;;;;;2.72;1.95;;;15.90;99.90;;;;;;5018181;28;20042;-74
2021/09/13 01:23:07;;;;;;;3.03;2.00;;;15.90;99.90;;;;;;5046217;28;20061;-75
2021/09/13 01:25:35;;;;;;;3.50;2.25;;;15.90;99.90;;;;;;5015042;28;20053;-74
2021/09/13 01:28:03;;;;;;;2.60;2.40;;;15.90;99.90;;;;;;5013965;28;20362;-75
2021/09/13 01:30:30;;;;;;;3.60;2.17;;;15.90;99.90;;;;;;5030910;28;20053;-75
2021/09/13 01:32:57;;;;;;;3.28;2.10;;;15.80;99.90;;;;;;5012559;28;20516;-75
2021/09/13 01:35:24;;;;;;;4.35;1.90;;;15.80;99.90;;;;;;5012996;28;20044;-75
2021/09/13 01:37:51;;;;;;;2.45;2.00;;;15.80;99.90;;;;;;5015995;28;20060;-75
2021/09/13 01:40:19;;;;;;;2.50;2.25;;;15.80;99.90;;;;;;5013336;28;20088;-74
2021/09/13 01:42:46;;;;;;;2.50;1.95;;;15.80;99.90;;;;;;5014034;28;20046;-75
2021/09/13 01:45:13;;;;;;;2.50;2.00;;;15.80;99.90;;;;;;5011546;28;20482;-75
2021/09/13 01:47:41;;;;;;;5.05;2.10;;;15.80;99.90;;;;;;5013924;28;20038;-74
2021/09/13 01:50:09;;;;;;;4.35;2.00;;;15.80;99.90;;;;;;5014648;28;20409;-75
2021/09/13 01:52:37;;;;;;;2.60;2.40;;;15.80;99.90;;;;;;5013027;28;20413;-74
2021/09/13 01:55:04;;;;;;;2.20;1.95;;;15.80;99.90;;;;;;5013139;28;20045;-75
2021/09/13 01:57:31;;;;;;;5.10;2.20;;;15.80;99.90;;;;;;5013384;28;20046;-75
2021/09/13 01:59:58;;;;;;;3.55;2.40;;;15.80;99.90;;;;;;5013732;28;20053;-75
2021/09/13 02:02:25;;;;;;;5.78;2.00;;;15.90;99.90;;;;;;5012730;28;20045;-74
2021/09/13 02:04:53;;;;;;;2.25;2.00;;;15.80;99.90;;;;;;5015622;28;20041;-75
2021/09/13 02:07:20;;;;;;;3.33;2.13;;;15.80;99.90;;;;;;5012953;28;20041;-75
2021/09/13 02:09:48;;;;;;;3.50;2.30;;;15.90;99.90;;;;;;5013218;28;20041;-75
2021/09/13 02:12:15;;;;;;;1.87;1.77;;;15.80;99.90;;;;;;5011166;28;20363;-75
2021/09/13 02:14:41;;;;;;;2.63;2.00;;;15.80;99.90;;;;;;5013556;28;20108;-75
2021/09/13 02:17:08;;;;;;;3.45;1.80;;;15.80;99.90;;;;;;5014190;28;20060;-75
2021/09/13 02:19:35;;;;;;;4.00;2.15;;;15.90;99.90;;;;;;5012390;28;20045;-75
2021/09/13 02:22:03;;;;;;;2.22;2.03;;;15.90;99.90;;;;;;5013302;28;20049;-75
2021/09/13 02:24:30;;;;;;;4.43;1.90;;;15.90;99.90;;;;;;5010667;28;20560;-75
2021/09/13 02:26:57;;;;;;;2.75;1.73;;;15.80;99.90;;;;;;5013446;28;20397;-75
2021/09/13 02:29:24;;;;;;;2.85;1.90;;;15.80;99.90;;;;;;5012152;28;20053;-75
2021/09/13 02:31:51;;;;;;;2.58;2.30;;;15.80;99.90;;;;;;5015106;28;20053;-75
2021/09/13 02:34:18;;;;;;;2.65;2.10;;;15.80;99.90;;;;;;5012112;28;20385;-75
2021/09/13 02:36:45;;;;;;;4.55;2.10;;;15.80;99.90;;;;;;5012863;28;20389;-74
2021/09/13 02:39:12;;;;;;;2.65;2.00;;;15.80;99.90;;;;;;5012264;28;20045;-75
2021/09/13 02:41:39;;;;;;;2.97;2.35;;;15.80;99.90;;;;;;5012925;28;20050;-74
2021/09/13 02:44:06;;;;;;;4.10;2.08;;;15.80;99.90;;;;;;5013989;28;20057;-74
2021/09/13 02:46:33;;;;;;;2.38;2.17;;;15.80;99.90;;;;;;5013419;28;20374;-75
2021/09/13 02:49:00;;;;;;;4.07;2.33;;;15.80;99.90;;;;;;5012725;28;20288;-75
2021/09/13 02:51:27;;;;;;;2.70;2.00;;;15.80;99.90;;;;;;5010529;28;20053;-75
2021/09/13 02:53:54;;;;;;;3.20;2.17;;;15.80;99.90;;;;;;5012644;28;20042;-75
2021/09/13 02:56:21;;;;;;;2.13;1.90;;;15.80;99.90;;;;;;5012125;28;20045;-75
2021/09/13 02:58:48;;;;;;;3.80;2.05;;;15.80;99.90;;;;;;5055568;28;20049;-74
2021/09/13 03:01:14;;;;;;;2.25;1.90;;;15.90;99.90;;;;;;5014116;28;20041;-75
2021/09/13 03:03:45;;;;;;;3.15;2.00;;;15.90;99.90;;;;;;5011231;28;20103;-75
2021/09/13 03:06:13;;;;;;;3.10;2.17;;;15.90;99.90;;;;;;5011905;28;20089;-75
2021/09/13 03:08:41;;;;;;;2.42;2.10;;;15.90;99.90;;;;;;5012518;28;20085;-75
2021/09/13 03:11:08;;;;;;;3.33;2.40;;;15.80;99.90;;;;;;5013649;28;20470;-75
2021/09/13 03:13:35;;;;;;;3.33;2.53;;;15.80;99.90;;;;;;5011718;28;20075;-74
2021/09/13 03:16:02;;;;;;;4.78;2.45;;;15.90;99.90;;;;;;5012069;28;20512;-75
2021/09/13 03:18:29;;;;;;;2.47;1.88;;;15.90;99.90;;;;;;5011923;28;21843;-74
2021/09/13 03:20:56;;;;;;;3.25;2.10;;;15.80;99.90;;;;;;5012451;28;20049;-75
2021/09/13 03:23:23;;;;;;;2.95;2.03;;;15.80;99.90;;;;;;5011395;28;20045;-75
2021/09/13 03:25:50;;;;;;;3.35;2.00;;;15.80;99.90;;;;;;5057457;28;20053;-74
2021/09/13 03:28:17;;;;;;;4.03;1.95;;;15.80;99.90;;;;;;5052033;28;20080;-75
2021/09/13 03:30:44;;;;;;;3.03;2.15;;;15.80;99.90;;;;;;5017241;28;20485;-75
2021/09/13 03:33:11;;;;;;;4.28;2.15;;;15.80;99.90;;;;;;5011469;28;20482;-75
2021/09/13 03:35:38;;;;;;;6.07;2.45;;;15.80;99.90;;;;;;5012449;28;20100;-75
2021/09/13 03:38:05;;;;;;;3.83;2.47;;;15.80;99.90;;;;;;5013805;28;20053;-75
2021/09/13 03:40:32;;;;;;;4.35;2.30;;;15.80;99.90;;;;;;5010986;28;20046;-75
2021/09/13 03:42:59;;;;;;;3.13;2.47;;;15.70;99.90;;;;;;5010807;28;20045;-75
2021/09/13 03:45:26;;;;;;;3.33;2.60;;;15.70;99.90;;;;;;5011545;28;20038;-75
2021/09/13 03:47:53;;;;;;;7.07;2.60;;;15.70;99.90;;;;;;5012356;28;20052;-75
2021/09/13 03:50:20;;;;;;;3.28;2.53;;;15.70;99.90;;;;;;5011790;28;20052;-75
2021/09/13 03:52:47;;;;;;;4.20;2.58;;;15.70;99.90;;;;;;5012089;28;20057;-75
2021/09/13 03:55:14;;;;;;;4.78;2.97;;;15.70;99.90;;;;;;5012494;28;20050;-75
2021/09/13 03:57:41;;;;;;;3.92;2.80;;;15.70;99.90;;;;;;5015801;28;20458;-75
2021/09/13 04:00:08;;;;;;;3.53;2.70;;;15.70;99.90;;;;;;5015158;28;20045;-75
2021/09/13 04:02:37;;;;;;;3.33;2.75;;;15.70;99.90;;;;;;5033074;28;20045;-75
2021/09/13 04:05:04;;;;;;;3.10;2.70;;;15.70;99.90;;;;;;5046607;28;20045;-75
2021/09/13 04:07:38;;;;;;;5.20;2.47;;;15.70;99.90;;;;;;5013916;28;20045;-75
2021/09/13 04:10:20;;;;;;;3.05;2.20;;;15.70;99.90;;;;;;5013648;28;20061;-75
2021/09/13 04:12:47;;;;;;;2.78;2.33;;;15.70;99.90;;;;;;5015753;28;20421;-75
2021/09/13 04:15:14;;;;;;;3.83;2.50;;;15.70;99.90;;;;;;5015036;28;20045;-75
2021/09/13 04:17:41;;;;;;;3.63;1.90;;;15.70;99.90;;;;;;5015601;28;20100;-75
2021/09/13 04:20:09;;;;;;;3.63;2.42;;;15.70;99.90;;;;;;5016770;28;20045;-76
2021/09/13 04:22:36;;;;;;;5.75;2.70;;;15.70;99.90;;;;;;5031103;28;20385;-75
2021/09/13 04:25:04;;;;;;;6.00;2.45;;;15.70;99.90;;;;;;5015343;28;20685;-76
2021/09/13 04:27:31;;;;;;;2.90;2.50;;;15.70;99.90;;;;;;5014897;28;20041;-76
2021/09/13 04:29:59;;;;;;;3.63;2.30;;;15.70;99.90;;;;;;5015478;28;20041;-75
2021/09/13 04:32:26;;;;;;;3.28;2.22;;;15.70;99.90;;;;;;5014771;28;20185;-75
2021/09/13 04:34:53;;;;;;;2.53;2.30;;;15.70;99.90;;;;;;5017326;28;20064;-76
2021/09/13 04:37:20;;;;;;;4.07;2.50;;;15.70;99.90;;;;;;5014382;28;20389;-76
2021/09/13 04:39:47;;;;;;;3.58;2.28;;;15.70;99.90;;;;;;5015075;28;20539;-75
2021/09/13 04:42:14;;;;;;;4.28;2.38;;;15.70;99.90;;;;;;5014141;28;20488;-75
2021/09/13 04:44:41;;;;;;;5.10;2.50;;;15.70;99.90;;;;;;5015539;28;20055;-75
2021/09/13 04:47:08;;;;;;;2.92;2.20;;;15.70;99.90;;;;;;5016171;28;20104;-75
2021/09/13 04:49:35;;;;;;;3.45;2.20;;;15.70;99.90;;;;;;5055409;28;20052;-75
2021/09/13 04:52:04;;;;;;;3.08;2.00;;;15.70;99.90;;;;;;5015040;28;20433;-76
2021/09/13 04:54:33;;;;;;;4.07;2.42;;;15.70;99.90;;;;;;5014443;28;20140;-75
2021/09/13 04:57:00;;;;;;;3.40;1.98;;;15.70;99.90;;;;;;5014892;28;20049;-76
2021/09/13 04:59:27;;;;;;;4.00;2.20;;;15.70;99.90;;;;;;5013914;28;20054;-76
2021/09/13 05:01:54;;;;;;;2.55;1.85;;;15.80;99.90;;;;;;5015606;28;20048;-76
2021/09/13 05:04:21;;;;;;;3.55;2.17;;;15.80;99.90;;;;;;5014074;28;20050;-76
2021/09/13 05:06:48;;;;;;;2.65;2.17;;;15.80;99.90;;;;;;5014373;28;20041;-76
2021/09/13 05:09:15;;;;;;;2.13;1.92;;;15.80;99.90;;;;;;5013997;28;20045;-76
2021/09/13 05:11:42;;;;;;;3.50;1.95;;;15.80;99.90;;;;;;5031944;28;20056;-75
2021/09/13 05:14:09;;;;;;;4.13;2.17;;;15.80;99.90;;;;;;5015081;28;20046;-75
2021/09/13 05:16:39;;;;;;;;;;;15.80;99.90;;;;;;5015976;28;20452;-75
2021/09/13 05:19:06;;;;;;;3.35;2.00;;;15.80;99.90;;;;;;5013479;28;19952;-75
2021/09/13 05:21:37;;;;;;;3.03;1.92;;;15.80;99.90;;;;;;5014410;28;20044;-75
2021/09/13 05:24:05;;;;;;;4.53;2.00;;;15.80;99.90;;;;;;5013580;28;20050;-75
2021/09/13 05:26:33;;;;;;;2.55;2.17;;;15.80;99.90;;;;;;5013385;28;20049;-75
2021/09/13 05:29:00;;;;;;;2.10;1.90;;;15.80;99.90;;;;;;5016132;28;20478;-75
2021/09/13 05:31:28;;;;;;;3.55;1.75;;;15.90;99.90;;;;;;5013628;28;20045;-75
2021/09/13 05:33:55;;;;;;;3.47;1.90;;;15.80;99.90;;;;;;5031515;28;20520;-75
2021/09/13 05:36:22;;;;;;;3.05;1.83;;;15.90;99.90;;;;;;5013399;28;20053;-75
2021/09/13 05:38:49;;;;;;;3.33;1.70;;;15.90;99.90;;;;;;5012888;28;20041;-75
2021/09/13 05:41:17;;;;;;;2.03;1.80;;;15.90;99.90;;;;;;5013939;28;20049;-76
2021/09/13 05:43:44;;;;;;;2.58;2.00;;;15.90;99.90;;;;;;5015595;28;20057;-76
2021/09/13 05:46:11;;;;;;;4.32;2.05;;;15.90;99.90;;;;;;5013147;28;20045;-75
2021/09/13 05:48:38;;;;;;;2.58;2.00;;;15.90;99.90;;;;;;5014284;28;20124;-75
2021/09/13 05:51:05;;;;;;;2.97;1.90;;;15.90;99.90;;;;;;5013310;28;20045;-75
2021/09/13 05:53:32;;;;;;;2.00;1.75;;;15.90;99.90;;;;;;5013916;28;20088;-76
2021/09/13 05:55:59;;;;;;;2.92;1.85;;;15.90;99.90;;;;;;5015859;28;20049;-75
2021/09/13 05:58:26;;;;;;;2.72;1.80;;;15.90;99.90;;;;;;5012585;28;20474;-75
2021/09/13 06:00:53;;;;;;;3.53;2.00;;;15.90;99.90;;;;;;5013247;28;20056;-75
2021/09/13 06:03:20;;;;;;;2.72;1.80;;;15.90;99.90;;;;;;5013068;28;20045;-76
2021/09/13 06:05:47;;;;;;;2.38;1.90;;;16.00;99.90;;;;;;5012022;28;20054;-75
2021/09/13 06:08:14;;;;;;;6.53;2.10;;;16.00;99.90;;;;;;5013728;28;20049;-76
2021/09/13 06:10:41;;;;;;;2.05;1.83;;;16.00;99.90;;;;;;5014447;28;20057;-75
2021/09/13 06:13:11;;;;;;;4.85;2.10;;;16.00;99.90;;;;;;5029823;28;20049;-75
2021/09/13 06:15:41;;;;;;;3.25;1.92;;;16.00;99.90;;;;;;5014468;28;20045;-76
2021/09/13 06:18:11;;;;;;;3.70;1.92;;;16.00;99.90;;;;;;5014456;28;20088;-75
2021/09/13 06:20:38;;;;;;;3.15;1.83;;;16.00;99.90;;;;;;5011118;28;20502;-75
2021/09/13 06:23:05;;;;;;;2.88;2.10;;;16.00;99.90;;;;;;5014559;28;20103;-75
2021/09/13 06:25:32;;;;;;;3.88;2.10;;;16.00;99.90;;;;;;5021400;28;20071;-75
2021/09/13 06:27:59;;;;;;;4.47;2.08;;;16.10;99.90;;;;;;5020866;28;20053;-76
2021/09/13 06:30:26;;;;;;;2.90;1.90;;;16.10;99.90;;;;;;5020809;28;20121;-76
2021/09/13 06:32:53;;;;;;;3.40;2.10;;;16.10;99.90;;;;;;5026244;28;20143;-76
2021/09/13 06:35:24;;;;;;;4.28;2.15;;;16.10;99.90;;;;;;5027150;28;20053;-76
2021/09/13 06:37:51;;;;;;;3.90;2.40;;;16.10;99.90;;;;;;5025077;28;20445;-77
2021/09/13 06:40:19;;;;;;;2.90;2.03;;;16.20;99.90;;;;;;5019742;28;20049;-76
2021/09/13 06:42:46;;;;;;;2.88;2.13;;;16.20;99.90;;;;;;5020297;28;20146;-77
2021/09/13 06:45:22;;;;;;;2.95;2.15;;;16.20;99.90;;;;;;5022046;28;20080;-77
2021/09/13 06:47:50;;;;;;;4.57;1.98;;;16.30;99.90;;;;;;5012644;28;20049;-76
2021/09/13 06:50:27;;;;;;;3.08;2.53;;;16.30;99.90;;;;;;5026613;28;20434;-77
2021/09/13 06:52:55;;;;;;;5.57;2.20;;;16.30;99.90;;;;;;5024507;28;20068;-77
2021/09/13 06:55:23;;;;;;;5.22;2.17;;;16.40;99.90;;;;;;5019226;28;20045;-77
2021/09/13 06:57:50;;;;;;;3.30;2.00;;;16.40;99.90;;;;;;5018495;28;20052;-76
2021/09/13 07:00:20;;;;;;;4.18;2.58;;;16.40;99.90;;;;;;5055781;28;20093;-77
2021/09/13 07:02:48;;;;;;;5.30;2.05;;;16.40;99.90;;;;;;5012722;28;20389;-77
2021/09/13 07:05:15;;;;;;;3.72;2.15;;;16.50;99.90;;;;;;5017057;28;20063;-76
2021/09/13 07:07:43;;;;;;;3.38;2.10;;;16.50;99.90;;;;;;5023077;28;20045;-77
2021/09/13 07:10:17;;;;;;;2.13;1.87;;;16.50;99.90;;;;;;5010501;28;20363;-77
2021/09/13 07:12:45;;;;;;;6.68;2.60;;;16.60;99.90;;;;;;5019548;28;20048;-77
2021/09/13 07:15:15;;;;;;;4.18;2.03;;;16.60;99.90;;;;;;5021941;28;20095;-77
2021/09/13 07:17:43;;;;;;;2.65;2.03;;;16.70;99.90;;;;;;5027128;28;20454;-77
2021/09/13 07:20:13;;;;;;;1.95;1.80;;;16.70;99.90;;;;;;5025926;28;20055;-77
2021/09/13 07:22:41;;;;;;;3.03;1.98;;;16.80;99.90;;;;;;5054127;28;20488;-77
2021/09/13 07:25:09;;;;;;;4.10;2.40;;;16.80;99.90;;;;;;5029471;28;20496;-77
2021/09/13 07:27:36;;;;;;;2.42;2.17;;;16.90;99.90;;;;;;5032053;28;20071;-77
2021/09/13 07:30:07;;;;;;;3.17;2.10;;;17.00;99.90;;;;;;5034355;28;20037;-77
2021/09/13 07:32:35;;;;;;;2.95;2.05;;;17.00;99.90;;;;;;5019596;28;20052;-77
2021/09/13 07:35:05;;;;;;;2.53;1.80;;;17.10;99.90;;;;;;5037822;28;20129;-77
2021/09/13 07:37:34;;;;;;;2.45;2.03;;;17.10;99.90;;;;;;5039726;28;20037;-77
2021/09/13 07:40:03;;;;;;;2.92;2.00;;;17.20;99.90;;;;;;5052383;28;20405;-76
2021/09/13 07:42:31;;;;;;;3.85;1.80;;;17.30;99.90;;;;;;5026402;28;20041;-77
2021/09/13 07:44:59;;;;;;;3.60;1.70;;;17.40;99.90;;;;;;5035972;28;20404;-77
2021/09/13 07:47:26;;;;;;;1.90;1.67;;;17.50;99.90;;;;;;5075641;28;20135;-77
2021/09/13 07:49:53;;;;;;;1.83;1.60;;;17.50;99.90;;;;;;5036095;28;20129;-77
2021/09/13 07:52:20;;;;;;;3.95;1.80;;;17.60;99.90;;;;;;5040340;28;20060;-77
2021/09/13 07:54:48;;;;;;;2.35;1.75;;;17.70;99.90;;;;;;5051753;28;20051;-77
2021/09/13 07:57:15;;;;;;;2.70;1.70;;;17.80;99.90;;;;;;5034452;28;20045;-77
2021/09/13 07:59:42;;;;;;;1.77;1.50;;;17.90;99.90;;;;;;5035537;28;20061;-77
2021/09/13 08:02:10;;;;;;;4.20;1.80;;;18.00;99.90;;;;;;5042946;28;20492;-77
2021/09/13 08:04:37;;;;;;;1.60;1.50;;;18.10;99.90;;;;;;5034865;28;20053;-76
2021/09/13 08:07:04;;;;;;;2.13;1.73;;;18.10;99.90;;;;;;5035499;28;20064;-76
2021/09/13 08:09:31;;;;;;;2.75;1.70;;;18.20;99.90;;;;;;5034964;28;20072;-77
2021/09/13 08:11:59;;;;;;;4.32;1.67;;;18.30;99.90;;;;;;5035166;28;20049;-77
2021/09/13 08:14:26;;;;;;;2.55;1.63;;;18.40;99.90;;;;;;5050653;28;20052;-76
2021/09/13 08:16:53;;;;;;;2.22;1.70;;;18.40;99.90;;;;;;5035754;28;20056;-77
2021/09/13 08:19:20;;;;;;;2.00;1.38;;;18.50;99.90;;;;;;5040237;28;20060;-77
2021/09/13 08:21:48;;;;;;;2.30;1.50;;;18.60;99.90;;;;;;5051410;28;20045;-76
2021/09/13 08:24:15;;;;;;;2.95;1.70;;;18.60;99.90;;;;;;5016661;28;20063;-77
2021/09/13 08:26:42;;;;;;;4.13;1.73;;;18.70;99.90;;;;;;5015310;28;20410;-77
2021/09/13 08:29:17;;;;;;;1.83;1.60;;;18.80;99.90;;;;;;5015542;28;20055;-77
2021/09/13 08:31:44;;;;;;;1.73;1.48;;;18.90;99.90;;;;;;5016656;28;20128;-76
2021/09/13 08:34:13;;;;;;;3.53;1.67;;;18.90;99.90;;;;;;5014334;28;20099;-77
2021/09/13 08:36:43;;;;;;;5.75;1.58;;;19.00;99.90;;;;;;5014657;28;20255;-77
2021/09/13 08:39:10;;;;;;;2.55;1.50;;;19.10;99.90;;;;;;5014070;28;20177;-77
2021/09/13 08:41:37;;;;;;;2.15;1.80;;;19.10;99.90;;;;;;5012442;28;20413;-77
2021/09/13 08:44:05;;;;;;;3.22;1.40;;;19.20;99.90;;;;;;5016510;28;20086;-78
2021/09/13 08:46:47;;;;;;;5.30;1.70;;;19.20;99.90;;;;;;5014560;28;20057;-77
2021/09/13 08:49:32;;;;;;;3.40;1.50;;;19.20;99.90;;;;;;5013978;28;20132;-77
2021/09/13 08:52:02;;;;;;;2.67;1.40;;;19.30;99.90;;;;;;5014653;28;20064;-77
2021/09/13 08:54:36;;;;;;;3.60;1.50;;;19.30;99.90;;;;;;5012910;28;20053;-77
2021/09/13 08:57:06;;;;;;;2.33;1.52;;;19.40;99.90;;;;;;5005759;28;20046;-77
2021/09/13 08:59:37;;;;;;;3.95;1.75;;;19.50;99.90;;;;;;5021555;28;20046;-76
2021/09/13 09:02:05;;;;;;;2.33;1.45;;;19.60;99.90;;;;;;5035756;28;20049;-77
2021/09/13 09:04:55;;;;;;;1.85;1.17;;;19.70;99.90;;;;;;5017851;28;20137;-77
2021/09/13 09:07:25;;;;;;;4.95;1.70;;;19.90;99.90;;;;;;5013479;28;20056;-77
2021/09/13 09:10:13;;;;;;;2.42;1.38;;;20.10;99.90;;;;;;5013739;28;20053;-77
2021/09/13 09:12:55;;;;;;;2.25;1.50;;;20.30;99.90;;;;;;5013796;28;20041;-77
2021/09/13 09:15:22;;;;;;;2.15;1.45;;;20.40;99.90;;;;;;5013342;28;20378;-76
2021/09/13 09:17:55;;;;;;;3.22;1.45;;;20.60;99.90;;;;;;5014291;28;20524;-76
2021/09/13 09:20:23;;;;;;;2.88;1.60;;;20.70;99.90;;;;;;5014328;28;20053;-76
2021/09/13 09:23:01;;;;;;;2.65;1.40;;;20.80;99.90;;;;;;5014336;28;20057;-76
2021/09/13 09:25:33;;;;;;;1.95;1.40;;;20.90;99.90;;;;;;5020643;28;20048;-77
2021/09/13 09:28:06;;;;;;;3.95;1.35;;;21.00;99.90;;;;;;5021703;28;20041;-76
2021/09/13 09:30:36;;;;;;;2.03;1.40;;;21.10;99.90;;;;;;5021388;28;20050;-76
2021/09/13 09:33:12;;;;;;;2.65;1.50;;;21.20;99.90;;;;;;5028498;28;20041;-76
2021/09/13 09:35:55;;;;;;;2.67;1.17;;;21.30;99.90;;;;;;4996980;28;20045;-76
2021/09/13 09:38:36;;;;;;;2.53;1.58;;;21.40;99.90;;;;;;5025620;28;20049;-76
2021/09/13 09:41:10;;;;;;;4.00;1.25;;;21.50;99.90;;;;;;5024831;28;20050;-76
2021/09/13 09:43:57;;;;;;;3.42;1.45;;;21.60;99.90;;;;;;5013339;28;20512;-76
2021/09/13 09:46:36;;;;;;;5.28;1.70;;;21.70;99.90;;;;;;5017186;28;20057;-75
2021/09/13 09:49:04;;;;;;;5.40;1.65;;;21.80;99.90;;;;;;5029971;28;20053;-74
2021/09/13 09:51:37;;;;;;;2.97;1.48;;;21.80;99.90;;;;;;5012912;28;20046;-74
2021/09/13 09:54:16;;;;;;;2.97;1.67;;;21.80;99.90;;;;;;5057342;28;20456;-75
2021/09/13 09:56:46;;;;;;;3.42;1.30;;;21.90;99.90;;;;;;5031906;28;20044;-75
2021/09/13 09:59:17;;;;;;;3.35;1.10;;;21.90;99.90;;;;;;5027072;28;20054;-74
2021/09/13 10:01:46;;;;;;;2.10;1.17;;;21.90;99.90;;;;;;5024573;28;20056;-74
2021/09/13 10:04:27;;;;;;;3.90;1.20;;;22.00;99.90;;;;;;5020515;28;20127;-74
2021/09/13 10:06:59;;;;;;;1.48;1.13;;;22.10;99.90;;;;;;5021031;28;20037;-75
2021/09/13 10:09:30;;;;;;;2.78;1.20;;;22.20;99.90;;;;;;5021630;28;20037;-74
2021/09/13 10:12:01;;;;;;;2.10;1.50;;;22.30;99.90;;;;;;5025101;28;20046;-74
2021/09/13 10:14:30;;;;;;;1.95;1.40;;;22.40;99.90;;;;;;5028016;28;20146;-74
2021/09/13 10:16:57;;;;;;;3.72;1.48;;;22.50;99.90;;;;;;5026059;28;20084;-75
2021/09/13 10:19:44;;;;;;;4.80;1.40;;;22.50;99.90;;;;;;5023746;28;20049;-75
2021/09/13 10:22:11;;;;;;;2.20;1.02;;;22.60;99.90;;;;;;5019691;28;20049;-74
2021/09/13 10:24:39;;;;;;;3.20;1.38;;;22.70;99.90;;;;;;5077393;28;20487;-75
2021/09/13 10:27:14;;;;;;;3.00;1.20;;;22.80;99.90;;;;;;5036387;28;20059;-74
2021/09/13 10:29:42;;;;;;;2.38;1.42;;;22.80;99.90;;;;;;5051214;28;20057;-75
2021/09/13 10:32:12;;;;;;;2.83;1.25;;;22.80;99.90;;;;;;5037218;28;20064;-74
2021/09/13 10:34:42;;;;;;;1.98;1.20;;;22.80;99.90;;;;;;5038803;28;20373;-75
2021/09/13 10:37:11;;;;;;;2.22;1.20;;;22.90;99.90;;;;;;5036480;28;20053;-75
2021/09/13 10:39:56;;;;;;;;;;;23.00;99.90;;;;;;5035823;28;20496;-75
2021/09/13 10:42:38;;;;;;;2.38;1.13;;;23.10;99.90;;;;;;5036212;28;19924;-75
2021/09/13 10:45:15;;;;;;;1.98;1.50;;;23.10;99.90;;;;;;5035571;28;20036;-74
2021/09/13 10:47:45;;;;;;;2.38;1.27;;;23.20;99.90;;;;;;5050997;28;20048;-75
2021/09/13 10:50:20;;;;;;;1.75;1.20;;;23.20;99.90;;;;;;5036357;28;20041;-75
2021/09/13 10:52:49;;;;;;;1.77;1.10;;;23.30;99.90;;;;;;5069945;28;20049;-75
2021/09/13 10:55:18;;;;;;;2.22;1.30;;;23.40;99.90;;;;;;5035823;28;20473;-75
2021/09/13 10:58:34;;;;;;;2.00;1.10;;;23.50;99.90;;;;;;5036525;28;20045;-74
2021/09/13 11:01:03;;;;;;;1.38;1.05;;;23.60;99.90;;;;;;4956183;28;20046;-74
2021/09/13 11:03:36;;;;;;;2.28;1.30;;;23.70;99.90;;;;;;4949156;28;20554;-74
2021/09/13 11:06:07;;;;;;;2.13;1.20;;;23.80;99.90;;;;;;4949431;28;20043;-74
2021/09/13 11:08:44;;;;;;;2.50;1.20;;;23.90;99.90;;;;;;4979707;28;20061;-75
2021/09/13 11:11:31;;;;;;;1.88;1.20;;;24.00;99.90;;;;;;4982070;28;20059;-74
2021/09/13 11:14:04;;;;;;;1.65;1.00;;;24.00;99.90;;;;;;4955752;28;20532;-75
2021/09/13 11:16:35;;;;;;;2.80;1.00;;;24.10;99.90;;;;;;4950132;28;20060;-74
2021/09/13 11:19:09;;;;;;;1.20;1.00;;;24.20;99.90;;;;;;4952827;28;20058;-74
2021/09/13 11:21:47;;;;;;;2.63;1.15;;;24.30;99.90;;;;;;4948637;28;20047;-74
2021/09/13 11:24:21;;;;;;;5.22;1.20;;;24.40;99.90;;;;;;4959101;28;20059;-75
2021/09/13 11:26:55;;;;;;;3.35;1.10;;;24.50;99.90;;;;;;4961903;28;20039;-75
2021/09/13 11:29:24;;;;;;;1.80;1.05;;;24.60;99.90;;;;;;4952025;28;20055;-75
2021/09/13 11:31:59;;;;;;;4.53;1.30;;;24.70;99.90;;;;;;4985106;28;20479;-75
2021/09/13 11:34:35;;;;;;;1.30;1.00;;;24.80;99.90;;;;;;4949984;28;20047;-75
2021/09/13 11:37:07;;;;;;;2.28;1.27;;;25.00;99.90;;;;;;5026439;28;20474;-75
2021/09/13 11:39:43;;;;;;;1.88;1.00;;;25.10;99.90;;;;;;5044106;28;20044;-75
2021/09/13 11:42:17;;;;;;;1.80;1.10;;;25.20;99.90;;;;;;5009879;28;20041;-75
2021/09/13 11:44:50;;;;;;;2.42;1.02;;;25.30;99.90;;;;;;4997386;28;20045;-75
2021/09/13 11:47:19;;;;;;;1.85;1.10;;;25.40;99.90;;;;;;5008788;28;20050;-75
2021/09/13 11:49:49;;;;;;;2.42;1.00;;;25.40;99.90;;;;;;5010374;28;20046;-76
2021/09/13 11:52:30;;;;;;;1.95;1.10;;;25.40;99.90;;;;;;5006743;28;20053;-75
2021/09/13 11:55:08;;;;;;;1.33;1.17;;;25.40;99.90;;;;;;5008510;28;20055;-76
2021/09/13 11:57:47;;;;;;;3.63;1.07;;;25.50;99.90;;;;;;5026116;28;20132;-75
2021/09/13 12:00:23;;;;;;;1.92;1.42;;;25.50;99.90;;;;;;5011192;28;20037;-75
2021/09/13 12:02:56;;;;;;;4.43;1.17;;;25.60;99.90;;;;;;5012466;28;20389;-75
2021/09/13 12:05:28;;;;;;;1.77;1.20;;;25.60;99.90;;;;;;5013030;28;20050;-75
2021/09/13 12:07:57;;;;;;;2.30;1.17;;;25.60;99.90;;;;;;5057174;28;20485;-75
2021/09/13 12:10:27;;;;;;;2.38;1.25;;;25.70;99.90;;;;;;5050026;28;20052;-75
2021/09/13 12:12:57;;;;;;;2.95;1.42;;;25.70;99.90;;;;;;5049829;28;20080;-75
2021/09/13 12:15:27;;;;;;;2.05;1.27;;;25.70;99.90;;;;;;5047989;28;20470;-75
2021/09/13 12:17:55;;;;;;;2.05;1.20;;;25.70;99.90;;;;;;5015291;28;20044;-75
2021/09/13 12:20:25;;;;;;;3.97;1.40;;;25.60;99.90;;;;;;5014748;28;20068;-75
2021/09/13 12:23:10;;;;;;;1.83;1.10;;;25.70;99.90;;;;;;5017154;28;20053;-76
2021/09/13 12:25:44;;;;;;;3.50;1.00;;;25.60;99.90;;;;;;5030082;28;20049;-76
2021/09/13 12:28:13;;;;;;;2.35;1.13;;;25.50;99.90;;;;;;5014618;28;20508;-76
2021/09/13 12:30:44;;;;;;;2.40;0.95;;;25.50;99.90;;;;;;5015307;28;20044;-76
2021/09/13 12:33:11;;;;;;;1.20;1.00;;;25.40;99.90;;;;;;5014777;28;20045;-76
2021/09/13 12:35:40;;;;;;;1.93;1.07;;;25.40;99.90;;;;;;5013927;28;20041;-76
2021/09/13 12:38:23;;;;;;;1.17;1.00;;;25.30;99.90;;;;;;5016859;28;20064;-76
2021/09/13 12:40:50;;;;;;;1.83;1.08;;;25.20;99.80;;;;;;5015164;28;20046;-76
2021/09/13 12:43:23;;;;;;;1.45;1.35;;;25.10;99.90;;;;;;5014505;28;20045;-76
2021/09/13 12:46:21;;;;;;;1.55;1.00;;;25.00;99.90;;;;;;5015055;28;20045;-76
2021/09/13 12:48:50;;;;;;;3.00;1.20;;;24.90;99.90;;;;;;5013190;28;20512;-76
2021/09/13 12:51:19;;;;;;;1.80;1.27;;;24.80;99.90;;;;;;5014030;28;20052;-76
2021/09/13 12:54:12;;;;;;;2.60;1.00;;;24.60;99.90;;;;;;5014944;28;20045;-76
2021/09/13 12:56:44;;;;;;;3.22;1.15;;;24.50;99.30;;;;;;4995563;28;20044;-76
2021/09/13 12:59:18;;;;;;;2.03;1.10;;;24.40;99.80;;;;;;5015498;28;20049;-76
2021/09/13 13:01:46;;;;;;;1.70;1.30;;;24.20;99.90;;;;;;5033671;28;20056;-76